If you wish to contribute or participate in the discussions about articles you are invited to join SKYbrary as a registered user

 Actions

Mahshahr Airport

From SKYbrary Wiki

OIAM
Airport
ICAO: OIAM – IATA: MRX
Summary
Name Mahshahr Airport
Region Middle East
Territory Iran IR.gif
Location Bandar Mahshahr, Khuzestan Province
Serving Bandar Mashahr
Elevation 2.438 m
8 ft2.438 m
Coordinates 30° 32' 58.84" N, 49° 9' 10.93" E
Runways
Designator Length Width Surface ROPS
14/32 2705 m8,874.672 ft
45 m147.638 ft
ASP /


METAR
Observation OIAM 181300Z 31027KT 5000 SA NSC 44/13 Q0999
Station Bandar Mahshahr / Mahshahr
Date/Time 18 June 2019 13:00:00
Wind direction 310°
Wind speed 27 kts
Lowest cloud amount nil significant cloud
Temperature 44°C
Dew point 13°C
Humidity 16%
QNH 999 hPa
Weather condition n/a

Airport serving the city of Bandar Mahshahr, Iran

Climatology

Warm Desert climate (Köppen climate classification BWh).

Maps

Terrain

Loading map...

Airport Layout

Loading map...


Accidents & Serious Incidents at or in vicinity of OIAM

None on SKYbrary